Time;durP1;ratioP1;P1;durP2;ratioP2;P2;SDS_P1;SDS_P2;PMS_P1;PMS_P2;Temp;Humidity;BMP_temperature;BMP_pressure;BME280_temperature;BME280_humidity;BME280_pressure;Samples;Min_cycle;Max_cycle;Signal;HPM_P1;HPM_P2
2021/10/13 00:00:28;;;;;;;8.07;1.90;;;9.90;99.90;;;;;;5038425;28;20048;-90
2021/10/13 00:02:54;;;;;;;6.03;2.00;;;9.90;99.90;;;;;;5039212;28;20035;-91
2021/10/13 00:05:25;;;;;;;7.13;2.15;;;10.00;99.90;;;;;;5039501;28;20017;-90
2021/10/13 00:07:53;;;;;;;;;;;10.00;99.90;;;;;;5039581;28;20025;-90
2021/10/13 00:10:19;;;;;;;5.43;1.80;;;10.00;99.90;;;;;;5038899;28;20339;-90
2021/10/13 00:12:45;;;;;;;7.28;2.17;;;10.00;99.90;;;;;;5028964;28;20017;-88
2021/10/13 00:15:15;;;;;;;6.75;2.50;;;10.10;99.90;;;;;;5052339;28;20013;-90
2021/10/13 00:17:41;;;;;;;6.15;2.00;;;10.10;99.90;;;;;;5039360;28;20024;-90
2021/10/13 00:20:11;;;;;;;6.45;1.77;;;10.10;99.90;;;;;;5038692;28;20381;-89
2021/10/13 00:22:36;;;;;;;5.63;2.15;;;10.10;99.90;;;;;;5038521;28;20025;-89
2021/10/13 00:25:07;;;;;;;5.72;2.25;;;10.10;99.90;;;;;;5038739;28;20438;-92
2021/10/13 00:27:33;;;;;;;6.53;1.90;;;10.10;99.80;;;;;;5012012;28;20182;-91
2021/10/13 00:29:59;;;;;;;8.52;2.10;;;10.00;99.80;;;;;;5038722;28;20056;-91
2021/10/13 00:32:28;;;;;;;6.65;1.73;;;10.00;99.70;;;;;;5039114;28;20025;-91
2021/10/13 00:34:54;;;;;;;6.18;1.80;;;10.00;99.70;;;;;;5039611;28;20106;-92
2021/10/13 00:37:23;;;;;;;3.60;1.80;;;10.00;99.80;;;;;;5023553;28;20126;-92
2021/10/13 00:39:48;;;;;;;6.75;2.03;;;10.00;99.70;;;;;;5039623;28;20021;-93
2021/10/13 00:42:21;;;;;;;7.70;2.08;;;10.00;99.80;;;;;;5022926;28;20036;-91
2021/10/13 00:44:47;;;;;;;7.78;2.30;;;10.00;99.80;;;;;;5022028;28;20538;-92
2021/10/13 00:47:13;;;;;;;5.47;1.83;;;10.00;99.80;;;;;;5039103;28;20045;-93
2021/10/13 00:49:40;;;;;;;3.55;1.58;;;10.00;99.80;;;;;;5036825;28;20389;-91
2021/10/13 00:52:06;;;;;;;6.43;2.40;;;10.00;99.80;;;;;;5029177;28;20017;-90
2021/10/13 00:54:32;;;;;;;3.70;1.60;;;9.90;99.80;;;;;;5040125;28;20036;-92
2021/10/13 00:56:58;;;;;;;4.65;1.52;;;9.90;99.60;;;;;;5023769;28;20032;-92
2021/10/13 00:59:24;;;;;;;5.30;1.67;;;9.90;99.60;;;;;;5039346;28;20025;-91
2021/10/13 01:02:03;;;;;;;4.22;1.52;;;9.90;99.50;;;;;;5021676;28;20029;-90
2021/10/13 01:04:31;;;;;;;3.88;1.80;;;9.80;99.40;;;;;;5038326;28;20381;-90
2021/10/13 01:07:47;;;;;;;7.97;2.00;;;9.90;99.60;;;;;;5038261;28;20600;-90
2021/10/13 01:10:54;;;;;;;6.53;1.80;;;9.80;99.60;;;;;;5030086;28;20038;-89
2021/10/13 01:13:38;;;;;;;5.13;1.63;;;9.80;99.70;;;;;;4999745;28;20034;-89
2021/10/13 01:16:17;;;;;;;5.75;2.05;;;9.80;99.90;;;;;;5039405;28;20064;-92
2021/10/13 01:18:59;;;;;;;5.13;1.70;;;9.80;99.90;;;;;;5041272;28;20382;-92
2021/10/13 01:21:37;;;;;;;4.13;1.50;;;9.80;99.90;;;;;;5046142;28;20032;-92
2021/10/13 01:24:21;;;;;;;4.80;1.77;;;9.80;99.90;;;;;;5041157;28;20024;-92
2021/10/13 01:27:13;;;;;;;6.40;1.73;;;9.80;99.90;;;;;;5038254;28;20033;-92
2021/10/13 01:29:40;;;;;;;6.75;2.00;;;9.80;99.90;;;;;;5028504;28;20597;-92
2021/10/13 01:32:17;;;;;;;5.65;2.17;;;9.80;99.90;;;;;;5034277;28;20016;-93
2021/10/13 01:34:46;;;;;;;5.65;1.90;;;9.80;99.90;;;;;;5038454;28;20108;-92
2021/10/13 01:37:27;;;;;;;6.72;2.17;;;9.80;99.90;;;;;;5038366;28;20025;-92
2021/10/13 01:39:57;;;;;;;7.55;2.10;;;9.80;99.90;;;;;;5038339;28;20029;-92
2021/10/13 01:42:26;;;;;;;5.28;1.98;;;9.80;99.90;;;;;;5037916;28;20040;-91
2021/10/13 01:44:56;;;;;;;6.20;1.85;;;9.80;99.90;;;;;;5038709;28;20025;-92
2021/10/13 01:47:23;;;;;;;5.30;2.50;;;9.80;99.90;;;;;;5042693;28;20020;-92
2021/10/13 01:49:55;;;;;;;8.18;2.75;;;9.80;99.90;;;;;;5020244;28;20035;-92
2021/10/13 01:52:23;;;;;;;5.47;2.22;;;9.80;99.90;;;;;;5037260;28;20132;-89
2021/10/13 01:55:09;;;;;;;4.30;2.10;;;9.80;99.90;;;;;;5034594;28;20465;-89
2021/10/13 01:57:36;;;;;;;6.10;2.33;;;9.80;99.90;;;;;;5012174;28;20061;-89
2021/10/13 02:00:06;;;;;;;9.73;2.30;;;9.80;99.90;;;;;;5020919;28;20513;-90
2021/10/13 02:02:33;;;;;;;5.65;2.03;;;9.80;99.90;;;;;;5037222;28;20036;-90
2021/10/13 02:05:04;;;;;;;4.90;2.15;;;9.70;99.90;;;;;;5019410;28;20513;-90
2021/10/13 02:07:37;;;;;;;5.80;2.13;;;9.70;99.70;;;;;;5021439;28;20593;-93
2021/10/13 02:10:07;;;;;;;4.15;1.98;;;9.70;99.80;;;;;;5055706;28;20005;-91
2021/10/13 02:12:45;;;;;;;3.95;1.80;;;9.70;99.80;;;;;;5052106;28;20014;-92
2021/10/13 02:15:13;;;;;;;4.82;2.13;;;9.60;99.70;;;;;;5047974;28;20033;-91
2021/10/13 02:17:51;;;;;;;4.05;2.05;;;9.60;99.80;;;;;;5054005;28;20025;-91
2021/10/13 02:20:19;;;;;;;5.93;2.13;;;9.60;99.70;;;;;;5039927;28;20021;-88
2021/10/13 02:22:50;;;;;;;5.80;2.05;;;9.60;99.70;;;;;;5040982;28;20025;-88
2021/10/13 02:25:16;;;;;;;4.75;2.42;;;9.60;99.90;;;;;;5026371;28;20049;-88
2021/10/13 02:27:56;;;;;;;6.32;2.03;;;9.60;99.90;;;;;;5020945;28;20021;-88
2021/10/13 02:30:22;;;;;;;4.20;1.70;;;9.50;99.80;;;;;;5035097;28;20159;-88
2021/10/13 02:32:49;;;;;;;6.00;2.00;;;9.50;99.80;;;;;;5040695;28;20028;-88
2021/10/13 02:35:17;;;;;;;3.30;1.80;;;9.50;99.70;;;;;;5040417;28;20478;-88
2021/10/13 02:37:46;;;;;;;4.70;2.30;;;9.50;99.90;;;;;;5040407;28;20013;-88
2021/10/13 02:40:12;;;;;;;6.60;2.10;;;9.50;99.90;;;;;;5023873;28;20029;-89
2021/10/13 02:42:39;;;;;;;6.20;1.80;;;9.50;99.90;;;;;;5054081;28;20009;-88
2021/10/13 02:45:26;;;;;;;6.30;2.30;;;9.50;99.90;;;;;;5040408;28;20033;-88
2021/10/13 02:48:06;;;;;;;6.35;1.85;;;9.50;99.90;;;;;;5042479;28;20382;-89
2021/10/13 02:50:43;;;;;;;5.05;1.95;;;9.50;99.90;;;;;;5060745;28;20025;-89
2021/10/13 02:53:27;;;;;;;4.50;1.80;;;9.50;99.90;;;;;;5043013;28;20032;-90
2021/10/13 02:59:16;;;;;;;4.53;1.95;;;9.50;99.90;;;;;;5042352;28;20040;-89
2021/10/13 03:01:44;;;;;;;5.88;1.83;;;9.50;99.90;;;;;;5040278;28;20063;-90
2021/10/13 03:04:26;;;;;;;9.25;2.28;;;9.50;99.90;;;;;;5040495;28;20025;-90
2021/10/13 03:06:59;;;;;;;5.72;2.17;;;9.50;99.90;;;;;;5040769;28;20481;-90
2021/10/13 03:09:28;;;;;;;4.28;1.80;;;9.60;99.90;;;;;;5040326;28;20021;-89
2021/10/13 03:11:58;;;;;;;5.22;1.95;;;9.50;99.90;;;;;;5040221;28;20029;-89
2021/10/13 03:14:25;;;;;;;6.20;1.77;;;9.50;99.90;;;;;;5042118;28;20023;-92
2021/10/13 03:16:53;;;;;;;6.85;1.90;;;9.50;99.90;;;;;;5044756;28;20461;-89
2021/10/13 03:19:22;;;;;;;5.10;2.05;;;9.60;99.90;;;;;;5023843;28;20409;-90
2021/10/13 03:21:57;;;;;;;5.78;2.00;;;9.60;99.90;;;;;;5032247;28;20538;-89
2021/10/13 03:24:23;;;;;;;6.18;1.92;;;9.60;99.90;;;;;;5020413;28;20029;-89
2021/10/13 03:26:52;;;;;;;6.38;1.80;;;9.60;99.90;;;;;;5021203;28;20053;-90
2021/10/13 03:29:18;;;;;;;5.53;2.15;;;9.60;99.90;;;;;;5042233;28;20028;-88
2021/10/13 03:31:45;;;;;;;5.70;2.20;;;9.60;99.90;;;;;;5034914;28;20040;-89
2021/10/13 03:34:13;;;;;;;6.07;1.95;;;9.60;99.90;;;;;;5037651;28;20031;-88
2021/10/13 03:36:39;;;;;;;3.72;1.52;;;9.60;99.90;;;;;;5047722;28;20046;-88
2021/10/13 03:39:08;;;;;;;5.22;1.90;;;9.60;99.90;;;;;;5053657;28;20044;-89
2021/10/13 03:41:34;;;;;;;5.80;1.98;;;9.60;99.90;;;;;;5039861;28;20112;-89
2021/10/13 03:44:00;;;;;;;6.07;2.13;;;9.60;99.90;;;;;;5039462;28;20059;-89
2021/10/13 03:46:26;;;;;;;5.18;1.95;;;9.60;99.90;;;;;;5041633;28;20025;-89
2021/10/13 03:48:55;;;;;;;5.32;1.90;;;9.70;99.90;;;;;;5050638;28;20035;-90
2021/10/13 03:51:21;;;;;;;4.88;1.90;;;9.70;99.90;;;;;;5039900;28;20017;-90
2021/10/13 03:53:47;;;;;;;5.25;2.53;;;9.70;99.90;;;;;;5041919;28;20032;-90
2021/10/13 03:56:14;;;;;;;4.40;1.70;;;9.70;99.90;;;;;;5019982;28;20033;-91
2021/10/13 03:58:48;;;;;;;5.55;1.90;;;9.70;99.90;;;;;;5039359;28;20024;-91
2021/10/13 04:01:14;;;;;;;5.85;1.85;;;9.70;99.90;;;;;;5039764;28;20074;-91
2021/10/13 04:03:41;;;;;;;5.47;2.00;;;9.70;99.90;;;;;;5040187;28;20013;-91
2021/10/13 04:06:10;;;;;;;2.97;1.52;;;9.70;99.90;;;;;;5039377;28;20028;-92
2021/10/13 04:08:36;;;;;;;5.93;1.58;;;9.70;99.90;;;;;;5008736;28;20512;-88
2021/10/13 04:11:02;;;;;;;5.22;1.88;;;9.80;99.90;;;;;;5039375;28;20462;-90
2021/10/13 04:13:33;;;;;;;5.63;2.10;;;9.70;99.90;;;;;;5038936;28;20025;-89
2021/10/13 04:15:59;;;;;;;3.83;2.00;;;9.70;99.90;;;;;;5022406;28;20057;-89
2021/10/13 04:18:31;;;;;;;4.72;2.10;;;9.80;99.90;;;;;;5022408;28;20063;-89
2021/10/13 04:21:15;;;;;;;3.72;1.80;;;9.70;99.90;;;;;;5026590;28;20025;-89
2021/10/13 04:23:48;;;;;;;6.22;2.03;;;9.70;99.90;;;;;;5038697;28;20490;-89
2021/10/13 04:26:16;;;;;;;4.25;1.80;;;9.80;99.90;;;;;;5038609;28;20048;-90
2021/10/13 04:28:42;;;;;;;3.17;1.80;;;9.70;99.90;;;;;;5038585;28;20009;-89
2021/10/13 04:31:08;;;;;;;4.82;2.15;;;9.80;99.90;;;;;;5039900;28;20024;-92
2021/10/13 04:33:34;;;;;;;6.88;2.15;;;9.70;99.90;;;;;;5026948;28;20148;-93
2021/10/13 04:36:08;;;;;;;5.88;2.00;;;9.80;99.90;;;;;;5049149;28;20084;-92
2021/10/13 04:38:48;;;;;;;4.78;2.10;;;9.80;99.90;;;;;;5047247;28;20029;-93
2021/10/13 04:41:35;;;;;;;4.20;2.00;;;9.80;99.90;;;;;;5033812;28;20038;-92
2021/10/13 04:44:09;;;;;;;6.10;2.00;;;9.70;99.90;;;;;;5042640;28;20017;-92
2021/10/13 04:46:35;;;;;;;2.90;1.88;;;9.80;99.90;;;;;;5039012;28;20439;-90
2021/10/13 04:49:01;;;;;;;6.65;2.10;;;9.80;99.90;;;;;;5039137;28;20028;-91
2021/10/13 04:51:26;;;;;;;4.20;2.13;;;9.80;99.90;;;;;;5040033;28;20016;-92
2021/10/13 04:53:52;;;;;;;4.60;1.95;;;9.80;99.90;;;;;;5039433;28;20375;-92
2021/10/13 04:56:21;;;;;;;4.40;2.47;;;9.80;99.90;;;;;;5039404;28;20029;-92
2021/10/13 04:58:47;;;;;;;8.77;2.38;;;9.80;99.90;;;;;;5039647;28;20482;-92
2021/10/13 05:01:13;;;;;;;7.93;2.85;;;9.80;99.90;;;;;;5036530;28;20104;-92
2021/10/13 05:03:39;;;;;;;5.15;2.30;;;9.80;99.90;;;;;;5036684;28;20021;-92
2021/10/13 05:06:04;;;;;;;5.38;2.00;;;9.80;99.90;;;;;;5043558;28;20033;-91
2021/10/13 05:08:30;;;;;;;4.53;2.13;;;9.80;99.90;;;;;;5055530;28;20021;-91
2021/10/13 05:10:56;;;;;;;8.43;2.47;;;9.80;99.90;;;;;;5048226;28;20048;-93
2021/10/13 05:13:21;;;;;;;4.90;2.15;;;9.70;99.90;;;;;;5022481;28;20024;-93
2021/10/13 05:15:50;;;;;;;6.18;2.30;;;9.70;99.90;;;;;;5037764;28;20048;-86
2021/10/13 05:18:16;;;;;;;5.28;2.47;;;9.70;99.90;;;;;;5021096;28;20428;-88
2021/10/13 05:21:00;;;;;;;4.93;2.15;;;9.70;99.90;;;;;;5020233;28;20029;-88
2021/10/13 05:23:25;;;;;;;4.75;2.33;;;9.70;99.90;;;;;;5049181;28;20466;-88
2021/10/13 05:25:51;;;;;;;6.03;2.35;;;9.70;99.90;;;;;;5031658;28;20090;-87
2021/10/13 05:28:17;;;;;;;6.78;2.30;;;9.70;99.90;;;;;;5004174;28;20029;-88
2021/10/13 05:30:42;;;;;;;5.65;2.30;;;9.70;99.90;;;;;;5020955;28;20107;-87
2021/10/13 05:33:46;;;;;;;6.63;2.58;;;9.70;99.90;;;;;;5021160;28;20074;-87
2021/10/13 05:36:12;;;;;;;7.70;2.13;;;9.70;99.90;;;;;;5030447;28;20025;-88
2021/10/13 05:38:37;;;;;;;6.88;2.60;;;9.60;99.90;;;;;;5021299;28;20024;-87
2021/10/13 05:41:03;;;;;;;5.40;2.30;;;9.60;99.90;;;;;;5020679;28;20393;-87
2021/10/13 05:43:29;;;;;;;4.63;2.00;;;9.60;99.90;;;;;;5015357;28;20493;-87
2021/10/13 05:45:55;;;;;;;7.13;2.20;;;9.60;99.90;;;;;;5036622;28;20032;-89
2021/10/13 05:48:21;;;;;;;4.38;1.75;;;9.60;99.90;;;;;;5037009;28;20024;-88
2021/10/13 05:50:47;;;;;;;7.13;2.30;;;9.60;99.90;;;;;;5036701;28;20032;-88
2021/10/13 05:53:12;;;;;;;7.85;2.85;;;9.60;99.90;;;;;;5036354;28;20010;-87
2021/10/13 05:55:38;;;;;;;5.22;2.17;;;9.50;99.90;;;;;;5036284;28;20108;-88
2021/10/13 05:58:05;;;;;;;5.75;2.40;;;9.60;99.90;;;;;;5036573;28;20024;-88
2021/10/13 06:00:31;;;;;;;7.35;2.50;;;9.60;99.90;;;;;;5020973;28;20033;-88
2021/10/13 06:02:58;;;;;;;5.13;2.30;;;9.50;99.90;;;;;;5028056;28;20024;-87
2021/10/13 06:05:25;;;;;;;6.75;2.80;;;9.50;99.90;;;;;;5040726;28;20021;-88
2021/10/13 06:07:51;;;;;;;4.70;2.40;;;9.50;99.90;;;;;;5029418;28;20025;-88
2021/10/13 06:10:17;;;;;;;6.00;2.30;;;9.60;99.90;;;;;;5033646;28;20470;-88
2021/10/13 06:12:43;;;;;;;4.78;2.35;;;9.60;99.90;;;;;;5017070;28;20079;-88
2021/10/13 06:15:09;;;;;;;6.85;2.95;;;9.50;99.90;;;;;;5024552;28;20379;-87
2021/10/13 06:17:35;;;;;;;5.40;2.20;;;9.50;99.90;;;;;;5020644;28;20025;-87
2021/10/13 06:20:00;;;;;;;5.40;2.20;;;9.50;99.90;;;;;;5036741;28;20112;-88
2021/10/13 06:22:26;;;;;;;6.13;2.42;;;9.60;99.90;;;;;;5036578;28;20426;-88
2021/10/13 06:24:56;;;;;;;5.43;2.33;;;9.50;99.90;;;;;;5036774;28;20482;-91
2021/10/13 06:27:23;;;;;;;5.33;2.10;;;9.60;99.90;;;;;;5019861;28;20048;-91
2021/10/13 06:29:52;;;;;;;7.25;2.20;;;9.60;99.90;;;;;;5017439;28;20021;-92
2021/10/13 06:32:17;;;;;;;4.68;2.20;;;9.60;99.90;;;;;;5017219;28;20022;-91
2021/10/13 06:34:43;;;;;;;7.35;2.03;;;9.60;99.90;;;;;;5017109;28;20108;-91
2021/10/13 06:37:11;;;;;;;5.65;1.90;;;9.60;99.90;;;;;;5018191;28;20024;-91
2021/10/13 06:39:39;;;;;;;6.13;2.35;;;9.60;99.90;;;;;;4994344;28;20054;-91
2021/10/13 06:42:05;;;;;;;4.78;2.42;;;9.70;99.90;;;;;;5010286;28;20025;-91
2021/10/13 06:44:31;;;;;;;4.43;2.10;;;9.70;99.90;;;;;;5017765;28;20050;-90
2021/10/13 06:46:57;;;;;;;4.10;2.50;;;9.70;99.90;;;;;;5037308;28;20093;-90
2021/10/13 06:49:22;;;;;;;5.57;2.38;;;9.70;99.90;;;;;;5020871;28;20109;-90
2021/10/13 06:51:49;;;;;;;6.43;2.40;;;9.70;99.90;;;;;;5001105;28;20026;-90
2021/10/13 06:54:15;;;;;;;4.30;2.42;;;9.70;99.90;;;;;;5028050;28;20029;-90
2021/10/13 06:56:40;;;;;;;7.65;2.42;;;9.70;99.90;;;;;;4991369;28;20021;-92
2021/10/13 06:59:06;;;;;;;6.65;2.30;;;9.70;99.90;;;;;;5028930;28;20079;-90
2021/10/13 07:01:33;;;;;;;4.20;2.15;;;9.80;99.90;;;;;;5019490;28;20028;-90
2021/10/13 07:04:00;;;;;;;6.47;2.22;;;9.80;99.90;;;;;;5019481;28;20017;-90
2021/10/13 07:06:26;;;;;;;4.47;2.08;;;9.70;99.90;;;;;;5032661;28;20382;-91
2021/10/13 07:08:52;;;;;;;4.68;2.38;;;9.80;99.90;;;;;;5021465;28;20013;-89
2021/10/13 07:11:25;;;;;;;6.82;2.47;;;9.80;99.90;;;;;;5020191;28;20022;-88
2021/10/13 07:13:51;;;;;;;5.95;2.17;;;9.80;99.90;;;;;;5020440;28;20098;-90
2021/10/13 07:16:20;;;;;;;5.25;2.25;;;9.80;99.90;;;;;;5020809;28;20545;-92
2021/10/13 07:18:45;;;;;;;5.22;2.30;;;9.80;99.90;;;;;;5004532;28;20030;-91
2021/10/13 07:21:14;;;;;;;4.75;2.42;;;9.90;99.90;;;;;;5022509;28;20389;-90
2021/10/13 07:23:40;;;;;;;5.40;2.60;;;9.90;99.90;;;;;;5003323;28;20022;-90
2021/10/13 07:26:06;;;;;;;5.53;2.53;;;9.90;99.90;;;;;;5016983;28;20060;-90
2021/10/13 07:28:38;;;;;;;3.92;2.30;;;9.90;99.90;;;;;;5048192;28;20081;-91
2021/10/13 07:31:03;;;;;;;4.80;2.40;;;9.90;99.90;;;;;;5053319;28;20036;-90
2021/10/13 07:33:32;;;;;;;5.78;2.35;;;10.00;99.90;;;;;;5062864;28;20032;-91
2021/10/13 07:35:58;;;;;;;7.10;3.17;;;10.00;99.90;;;;;;5045863;28;20017;-91
2021/10/13 07:38:24;;;;;;;6.25;2.40;;;10.00;99.90;;;;;;5039377;28;20028;-91
2021/10/13 07:40:50;;;;;;;6.50;2.55;;;10.00;99.90;;;;;;5029290;28;20040;-90
2021/10/13 07:43:19;;;;;;;7.70;2.50;;;10.00;99.90;;;;;;5044854;28;20027;-91
2021/10/13 07:45:47;;;;;;;7.95;3.05;;;10.10;99.90;;;;;;5040291;28;20032;-91
2021/10/13 07:48:13;;;;;;;9.20;3.10;;;10.10;99.90;;;;;;5040564;28;20045;-91
2021/10/13 07:50:39;;;;;;;6.32;2.90;;;10.10;99.90;;;;;;5040688;28;20021;-91
2021/10/13 07:53:04;;;;;;;5.93;2.75;;;10.10;99.90;;;;;;5040352;28;20067;-92
2021/10/13 07:55:31;;;;;;;8.00;2.97;;;10.20;99.90;;;;;;5023335;28;20025;-92
2021/10/13 07:57:57;;;;;;;6.53;2.75;;;10.20;99.90;;;;;;5039697;28;20028;-91
2021/10/13 08:00:23;;;;;;;7.60;3.17;;;10.20;99.90;;;;;;5023245;28;20028;-92
2021/10/13 08:02:49;;;;;;;8.52;3.08;;;10.30;99.90;;;;;;5039679;28;20025;-92
2021/10/13 08:05:17;;;;;;;8.32;2.80;;;10.30;99.90;;;;;;5039715;28;20032;-92
2021/10/13 08:07:43;;;;;;;7.53;3.10;;;10.30;99.90;;;;;;5040733;28;20055;-92
2021/10/13 08:10:10;;;;;;;8.18;2.90;;;10.30;99.90;;;;;;5023937;28;20032;-92
2021/10/13 08:12:36;;;;;;;6.93;3.20;;;10.30;99.90;;;;;;5040195;28;20100;-91
2021/10/13 08:15:02;;;;;;;8.10;3.10;;;10.40;99.90;;;;;;5040120;28;20021;-92
2021/10/13 08:17:28;;;;;;;7.25;3.15;;;10.40;99.90;;;;;;5038568;28;20017;-89
2021/10/13 08:19:53;;;;;;;7.88;3.30;;;10.50;99.90;;;;;;5038556;28;20043;-89
2021/10/13 08:22:19;;;;;;;5.90;3.13;;;10.50;99.90;;;;;;5022037;28;20474;-89
2021/10/13 08:24:45;;;;;;;10.23;3.88;;;10.50;99.90;;;;;;5055914;28;20045;-89
2021/10/13 08:27:10;;;;;;;7.57;3.55;;;10.60;99.90;;;;;;5022358;28;20032;-89
2021/10/13 08:29:36;;;;;;;7.80;3.05;;;10.60;99.90;;;;;;5008228;28;20021;-89
2021/10/13 08:32:02;;;;;;;6.50;3.28;;;10.70;99.90;;;;;;5003436;28;20021;-89
2021/10/13 08:34:28;;;;;;;6.28;3.10;;;10.70;99.90;;;;;;5051475;28;20104;-87
2021/10/13 08:36:53;;;;;;;6.78;3.17;;;10.80;99.90;;;;;;5023364;28;20021;-88
2021/10/13 08:39:19;;;;;;;5.93;2.70;;;10.80;99.90;;;;;;5033152;22;20110;-89
2021/10/13 08:41:46;;;;;;;7.88;2.85;;;10.90;99.90;;;;;;5023272;28;20389;-90
2021/10/13 08:44:15;;;;;;;7.72;3.00;;;11.00;99.90;;;;;;5022199;28;20051;-90
2021/10/13 08:46:42;;;;;;;9.98;2.83;;;11.00;99.90;;;;;;5038813;28;20088;-90
2021/10/13 08:49:20;;;;;;;8.15;2.70;;;11.10;99.90;;;;;;5056284;28;20029;-87
2021/10/13 08:51:46;;;;;;;7.00;2.88;;;11.10;99.90;;;;;;5029688;28;20036;-87
2021/10/13 08:54:17;;;;;;;6.93;3.35;;;11.20;99.90;;;;;;5038492;28;20391;-87
2021/10/13 08:56:43;;;;;;;;;;;11.20;99.90;;;;;;5058220;28;20547;-88
2021/10/13 08:59:09;;;;;;;7.22;2.90;;;11.30;99.90;;;;;;5058579;28;19913;-90
2021/10/13 09:01:48;;;;;;;7.25;2.72;;;11.40;99.90;;;;;;5041787;28;20028;-90
2021/10/13 09:04:14;;;;;;;11.80;3.83;;;11.40;99.90;;;;;;5071979;28;20053;-88
2021/10/13 09:06:39;;;;;;;6.88;2.92;;;11.50;99.90;;;;;;5047915;28;20017;-88
2021/10/13 09:09:10;;;;;;;5.80;2.80;;;11.50;99.90;;;;;;5044372;28;20120;-89
2021/10/13 09:11:48;;;;;;;5.15;2.30;;;11.60;99.90;;;;;;5041228;28;20056;-88
2021/10/13 09:14:24;;;;;;;8.10;3.63;;;11.60;99.90;;;;;;5057863;28;20108;-87
2021/10/13 09:17:00;;;;;;;8.95;3.88;;;11.60;99.90;;;;;;5057480;28;20027;-87
2021/10/13 09:19:29;;;;;;;7.72;3.35;;;11.70;99.90;;;;;;5057993;28;20024;-87
2021/10/13 09:21:56;;;;;;;5.35;2.60;;;11.80;99.90;;;;;;5057341;28;20032;-88
2021/10/13 09:24:23;;;;;;;9.05;3.35;;;11.80;99.90;;;;;;5059700;28;20029;-88
2021/10/13 09:26:49;;;;;;;9.55;2.78;;;11.90;99.90;;;;;;5029097;28;20086;-87
2021/10/13 09:29:15;;;;;;;5.80;3.10;;;11.90;99.90;;;;;;5051874;28;20032;-90
2021/10/13 09:31:41;;;;;;;7.28;2.90;;;11.90;99.90;;;;;;5052576;28;20017;-89
2021/10/13 09:34:09;;;;;;;7.88;3.35;;;11.90;99.90;;;;;;5086251;28;20016;-87
2021/10/13 09:36:58;;;;;;;7.25;3.00;;;12.00;99.90;;;;;;5056743;28;20012;-86
2021/10/13 09:39:29;;;;;;;6.97;3.30;;;12.10;99.90;;;;;;5042576;28;20025;-87
2021/10/13 09:42:05;;;;;;;6.47;2.90;;;12.20;99.90;;;;;;5056923;28;20046;-88
2021/10/13 09:44:56;;;;;;;4.75;2.30;;;12.30;99.90;;;;;;5057528;28;20453;-90
2021/10/13 09:47:35;;;;;;;9.13;2.50;;;12.30;99.90;;;;;;5022589;28;20516;-90
2021/10/13 09:50:07;;;;;;;5.05;2.40;;;12.40;99.90;;;;;;5052069;28;20021;-89
2021/10/13 09:52:32;;;;;;;7.22;2.38;;;12.50;99.90;;;;;;5057174;28;20020;-89
2021/10/13 09:55:04;;;;;;;5.72;2.30;;;12.60;99.90;;;;;;5028562;28;20066;-89
2021/10/13 09:57:32;;;;;;;7.30;2.58;;;12.60;99.90;;;;;;5042804;28;20453;-89
2021/10/13 10:00:17;;;;;;;6.55;2.10;;;12.70;99.90;;;;;;5074780;28;20036;-91
2021/10/13 10:02:51;;;;;;;6.72;2.53;;;12.80;99.90;;;;;;5057825;28;20052;-89
2021/10/13 10:05:31;;;;;;;6.60;2.35;;;12.80;99.90;;;;;;5056883;28;20025;-89
2021/10/13 10:08:09;;;;;;;6.30;2.23;;;12.90;99.90;;;;;;5057341;28;20028;-89
2021/10/13 10:10:37;;;;;;;4.05;2.00;;;13.00;99.90;;;;;;5042763;28;20025;-90
2021/10/13 10:13:04;;;;;;;7.97;2.13;;;13.10;99.90;;;;;;5027653;28;20021;-88
2021/10/13 10:15:40;;;;;;;6.82;2.53;;;13.10;99.90;;;;;;5043646;28;20029;-87
2021/10/13 10:18:35;;;;;;;6.95;2.67;;;13.20;99.90;;;;;;5042826;28;20024;-87
2021/10/13 10:21:24;;;;;;;5.50;2.00;;;13.30;99.90;;;;;;5053545;28;20029;-87
2021/10/13 10:23:57;;;;;;;5.00;1.55;;;13.30;99.90;;;;;;5036731;28;20032;-87
2021/10/13 10:26:26;;;;;;;6.32;1.75;;;13.40;99.90;;;;;;5054295;28;20473;-87
2021/10/13 10:28:55;;;;;;;5.45;1.85;;;13.50;99.90;;;;;;5054020;28;20024;-87
2021/10/13 10:31:27;;;;;;;4.88;1.95;;;13.50;99.90;;;;;;5040758;28;20031;-87
2021/10/13 10:34:06;;;;;;;4.13;1.48;;;13.60;99.90;;;;;;5055454;28;20016;-87
2021/10/13 10:36:35;;;;;;;5.50;1.60;;;13.60;99.90;;;;;;5055459;28;20025;-88
2021/10/13 10:39:06;;;;;;;6.10;2.28;;;13.70;99.90;;;;;;5056407;28;20064;-87
2021/10/13 10:41:40;;;;;;;6.85;1.52;;;13.70;99.90;;;;;;5043519;28;20043;-88
2021/10/13 10:44:54;;;;;;;4.28;1.17;;;13.80;99.90;;;;;;5059801;28;20044;-88
2021/10/13 10:47:23;;;;;;;3.13;1.00;;;13.90;99.90;;;;;;4999667;28;20487;-87
2021/10/13 10:49:55;;;;;;;7.50;1.40;;;14.00;99.90;;;;;;4998353;28;20117;-87
2021/10/13 10:52:26;;;;;;;4.93;1.30;;;14.00;99.90;;;;;;5039636;28;20025;-87
2021/10/13 10:55:01;;;;;;;4.55;1.20;;;14.10;99.90;;;;;;5048357;28;20060;-87
2021/10/13 10:57:29;;;;;;;2.22;0.82;;;14.20;99.90;;;;;;5064878;28;20482;-87
2021/10/13 10:59:56;;;;;;;5.13;1.27;;;14.30;99.90;;;;;;5047665;28;20064;-87
2021/10/13 11:02:22;;;;;;;2.78;0.90;;;14.40;99.90;;;;;;5054089;28;20470;-87
2021/10/13 11:05:04;;;;;;;5.15;1.27;;;14.50;99.90;;;;;;5070191;28;20039;-87
2021/10/13 11:07:31;;;;;;;3.08;1.00;;;14.60;99.90;;;;;;5051716;28;20111;-87
2021/10/13 11:10:03;;;;;;;2.63;1.13;;;14.60;99.90;;;;;;5059806;28;20441;-88
2021/10/13 11:12:48;;;;;;;1.90;0.65;;;14.70;99.90;;;;;;5076145;28;20016;-88
2021/10/13 11:15:15;;;;;;;6.05;1.02;;;14.70;99.90;;;;;;5058708;28;20016;-87
2021/10/13 11:17:41;;;;;;;2.80;0.88;;;14.70;99.90;;;;;;5058968;28;20065;-87
2021/10/13 11:20:11;;;;;;;2.53;1.20;;;14.80;99.90;;;;;;5058279;28;20153;-86
2021/10/13 11:22:39;;;;;;;3.58;1.20;;;14.80;99.90;;;;;;5067912;28;20159;-86
2021/10/13 11:25:13;;;;;;;4.15;1.10;;;14.90;99.90;;;;;;5058636;28;20035;-87
2021/10/13 11:27:39;;;;;;;4.50;1.05;;;15.00;99.90;;;;;;5052211;28;20023;-86
2021/10/13 11:30:16;;;;;;;2.78;1.10;;;15.00;99.90;;;;;;5071000;28;20354;-87
2021/10/13 11:32:42;;;;;;;4.90;1.60;;;15.10;99.90;;;;;;5050470;28;20117;-87
2021/10/13 11:35:08;;;;;;;4.47;1.13;;;15.20;99.90;;;;;;5052893;28;20056;-86
2021/10/13 11:37:34;;;;;;;4.93;1.67;;;15.20;99.90;;;;;;5059615;28;20040;-89
2021/10/13 11:40:03;;;;;;;3.33;1.25;;;15.30;99.90;;;;;;5064658;28;20083;-92
2021/10/13 11:42:31;;;;;;;4.40;1.17;;;15.40;99.90;;;;;;5061973;28;20021;-91
2021/10/13 11:44:57;;;;;;;3.10;1.05;;;15.50;99.90;;;;;;5039612;28;20036;-91
2021/10/13 11:47:34;;;;;;;3.65;1.05;;;15.60;99.90;;;;;;5062500;28;20029;-91
2021/10/13 11:50:06;;;;;;;3.20;0.93;;;15.70;99.90;;;;;;5078199;28;20090;-90
2021/10/13 11:52:32;;;;;;;3.40;1.02;;;15.80;99.90;;;;;;5059093;28;20496;-90
2021/10/13 11:55:04;;;;;;;2.40;0.90;;;15.70;99.90;;;;;;5037365;28;20116;-90
2021/10/13 11:57:30;;;;;;;4.95;0.98;;;15.80;99.90;;;;;;5055722;28;20466;-90
2021/10/13 12:00:18;;;;;;;2.70;0.90;;;15.80;99.90;;;;;;5060724;28;20493;-90
2021/10/13 12:03:06;;;;;;;5.38;1.35;;;15.80;99.90;;;;;;5057991;28;20029;-91
2021/10/13 12:05:40;;;;;;;2.72;0.93;;;15.80;99.90;;;;;;5050843;28;20093;-91
2021/10/13 12:08:14;;;;;;;2.70;0.93;;;15.80;99.90;;;;;;5062892;28;20473;-90
2021/10/13 12:10:51;;;;;;;4.40;1.38;;;15.80;99.90;;;;;;5071410;28;20021;-91
2021/10/13 12:13:23;;;;;;;3.20;0.90;;;15.80;99.80;;;;;;5063781;28;20013;-90
2021/10/13 12:15:49;;;;;;;2.97;1.05;;;15.80;99.90;;;;;;5069482;28;20044;-90
2021/10/13 12:18:21;;;;;;;3.97;0.98;;;15.80;99.90;;;;;;5042749;28;20021;-90
2021/10/13 12:20:51;;;;;;;3.40;1.23;;;15.80;99.70;;;;;;5059430;28;20500;-90
2021/10/13 12:23:23;;;;;;;4.20;1.00;;;15.90;99.90;;;;;;5059197;28;20020;-91
2021/10/13 12:25:49;;;;;;;4.55;1.33;;;15.90;99.90;;;;;;5059384;28;20113;-90
2021/10/13 12:28:17;;;;;;;3.90;1.00;;;16.00;99.90;;;;;;5028451;28;20033;-88
2021/10/13 12:30:45;;;;;;;3.20;1.20;;;16.00;99.90;;;;;;5063427;28;20025;-88
2021/10/13 12:33:16;;;;;;;4.97;1.20;;;16.10;99.90;;;;;;5045664;28;20025;-89
2021/10/13 12:35:43;;;;;;;;;;;16.10;99.90;;;;;;5060058;28;20051;-89
2021/10/13 12:38:14;;;;;;;3.88;1.35;;;16.20;99.50;;;;;;5065501;28;20417;-89
2021/10/13 12:40:58;;;;;;;3.80;1.48;;;16.20;99.80;;;;;;5041345;28;20075;-88
2021/10/13 12:43:24;;;;;;;4.82;0.93;;;16.20;99.80;;;;;;5054250;28;20028;-88
2021/10/13 12:45:50;;;;;;;4.70;1.02;;;16.20;99.50;;;;;;5036051;28;20402;-90
2021/10/13 12:48:23;;;;;;;4.30;1.10;;;16.30;99.30;;;;;;5022634;28;20398;-88
2021/10/13 12:51:09;;;;;;;4.05;1.15;;;16.30;99.10;;;;;;5044449;28;20032;-88
2021/10/13 12:53:36;;;;;;;2.88;1.20;;;16.30;99.00;;;;;;5044991;28;20107;-90
2021/10/13 12:56:02;;;;;;;6.72;1.42;;;16.30;98.60;;;;;;5043553;28;20032;-89
2021/10/13 12:58:29;;;;;;;3.30;1.13;;;16.30;98.00;;;;;;5059381;28;20102;-90
2021/10/13 13:00:55;;;;;;;4.25;1.10;;;16.40;98.30;;;;;;5046433;28;20028;-88
2021/10/13 13:03:23;;;;;;;4.20;0.98;;;16.40;98.00;;;;;;5042453;28;20025;-89
2021/10/13 13:05:52;;;;;;;3.65;1.10;;;16.40;97.50;;;;;;5042345;28;20052;-88
2021/10/13 13:08:19;;;;;;;8.95;1.30;;;16.40;96.80;;;;;;5058778;28;20048;-88
2021/10/13 13:10:45;;;;;;;3.70;0.80;;;16.40;96.70;;;;;;5057915;28;20106;-88